METAR Data

Data at: 0935 UTC 25 Mar 2019

METAR for:KFOK (Westhampton/Gabreski, NY, US)
Text:KFOK 250853Z AUTO 00000KT 10SM BKN080 OVC110 06/01 A3001 RMK AO2 SLP163 T00560011 56007
Temperature: 5.6°C ( 42°F)
Dewpoint: 1.1°C ( 34°F) [RH = 73%]
Pressure (altimeter):30.01 inches Hg (1016.3 mb) [Sea level pressure: 1016.3 mb]
Winds:calm
Visibility:10 or more sm (16+ km)
Ceiling:8000 feet AGL
Clouds: broken clouds at 8000 feet AGL, overcast cloud deck at 11000 feet AGL
QC Flag:automated observation with no human augmentation